sensor_id;sensor_type;location;lat;lon;timestamp;temperature;humidity
3912;DHT22;1971;51.778;10.330;2023-08-31T00:01:00;10.90;99.90
3912;DHT22;1971;51.778;10.330;2023-08-31T00:03:31;11.20;99.90
3912;DHT22;1971;51.778;10.330;2023-08-31T00:06:02;11.00;99.90
3912;DHT22;1971;51.778;10.330;2023-08-31T00:08:37;10.90;99.90
3912;DHT22;1971;51.778;10.330;2023-08-31T00:11:07;10.80;99.90
3912;DHT22;1971;51.778;10.330;2023-08-31T00:13:37;10.90;99.90
3912;DHT22;1971;51.778;10.330;2023-08-31T00:16:08;10.90;99.90
3912;DHT22;1971;51.778;10.330;2023-08-31T00:18:40;10.90;99.90
3912;DHT22;1971;51.778;10.330;2023-08-31T00:21:12;11.00;99.90
3912;DHT22;1971;51.778;10.330;2023-08-31T00:23:45;10.90;99.90
3912;DHT22;1971;51.778;10.330;2023-08-31T00:26:15;10.90;99.90
3912;DHT22;1971;51.778;10.330;2023-08-31T00:28:47;10.90;99.90
3912;DHT22;1971;51.778;10.330;2023-08-31T00:31:18;10.80;99.90
3912;DHT22;1971;51.778;10.330;2023-08-31T00:33:49;10.90;99.90
3912;DHT22;1971;51.778;10.330;2023-08-31T00:36:19;10.90;99.90
3912;DHT22;1971;51.778;10.330;2023-08-31T00:38:53;10.90;99.90
3912;DHT22;1971;51.778;10.330;2023-08-31T00:41:23;10.90;99.90
3912;DHT22;1971;51.778;10.330;2023-08-31T00:43:53;10.80;99.90
3912;DHT22;1971;51.778;10.330;2023-08-31T00:46:23;10.80;99.90
3912;DHT22;1971;51.778;10.330;2023-08-31T00:48:55;10.70;99.90
3912;DHT22;1971;51.778;10.330;2023-08-31T00:51:25;10.90;99.90
3912;DHT22;1971;51.778;10.330;2023-08-31T00:53:58;10.80;99.90
3912;DHT22;1971;51.778;10.330;2023-08-31T00:56:32;10.80;99.90
3912;DHT22;1971;51.778;10.330;2023-08-31T00:59:02;10.80;99.90
3912;DHT22;1971;51.778;10.330;2023-08-31T01:01:37;10.80;99.90
3912;DHT22;1971;51.778;10.330;2023-08-31T01:04:18;10.80;99.90
3912;DHT22;1971;51.778;10.330;2023-08-31T01:06:54;10.80;99.90
3912;DHT22;1971;51.778;10.330;2023-08-31T01:09:34;10.80;99.90
3912;DHT22;1971;51.778;10.330;2023-08-31T01:12:10;10.70;99.90
3912;DHT22;1971;51.778;10.330;2023-08-31T01:14:45;10.80;99.90
3912;DHT22;1971;51.778;10.330;2023-08-31T01:17:20;10.70;99.90
3912;DHT22;1971;51.778;10.330;2023-08-31T01:19:52;10.70;99.90
3912;DHT22;1971;51.778;10.330;2023-08-31T01:22:30;10.90;99.90
3912;DHT22;1971;51.778;10.330;2023-08-31T01:25:05;10.60;99.90
3912;DHT22;1971;51.778;10.330;2023-08-31T01:27:36;10.70;99.90
3912;DHT22;1971;51.778;10.330;2023-08-31T01:30:08;10.80;99.90
3912;DHT22;1971;51.778;10.330;2023-08-31T01:32:43;10.60;99.90
3912;DHT22;1971;51.778;10.330;2023-08-31T01:35:16;10.60;99.90
3912;DHT22;1971;51.778;10.330;2023-08-31T01:37:51;10.70;99.90
3912;DHT22;1971;51.778;10.330;2023-08-31T01:40:40;10.70;99.90
3912;DHT22;1971;51.778;10.330;2023-08-31T01:43:13;10.60;99.90
3912;DHT22;1971;51.778;10.330;2023-08-31T01:45:46;10.60;99.90
3912;DHT22;1971;51.778;10.330;2023-08-31T01:48:17;10.60;99.90
3912;DHT22;1971;51.778;10.330;2023-08-31T01:50:48;10.80;99.90
3912;DHT22;1971;51.778;10.330;2023-08-31T01:53:18;10.50;99.90
3912;DHT22;1971;51.778;10.330;2023-08-31T01:55:52;10.50;99.90
3912;DHT22;1971;51.778;10.330;2023-08-31T01:58:23;10.40;99.90
3912;DHT22;1971;51.778;10.330;2023-08-31T02:00:53;10.50;99.90
3912;DHT22;1971;51.778;10.330;2023-08-31T02:03:24;10.40;99.90
3912;DHT22;1971;51.778;10.330;2023-08-31T02:05:54;10.50;99.90
3912;DHT22;1971;51.778;10.330;2023-08-31T02:08:25;10.50;99.90
3912;DHT22;1971;51.778;10.330;2023-08-31T02:10:57;10.50;99.90
3912;DHT22;1971;51.778;10.330;2023-08-31T02:13:27;10.50;99.90
3912;DHT22;1971;51.778;10.330;2023-08-31T02:15:58;10.70;99.90
3912;DHT22;1971;51.778;10.330;2023-08-31T02:18:28;10.60;99.90
3912;DHT22;1971;51.778;10.330;2023-08-31T02:21:00;10.50;99.90
3912;DHT22;1971;51.778;10.330;2023-08-31T02:23:31;10.60;99.90
3912;DHT22;1971;51.778;10.330;2023-08-31T02:26:04;10.50;99.90
3912;DHT22;1971;51.778;10.330;2023-08-31T02:28:35;10.50;99.90
3912;DHT22;1971;51.778;10.330;2023-08-31T02:31:05;10.80;99.90
3912;DHT22;1971;51.778;10.330;2023-08-31T02:33:40;10.50;99.90
3912;DHT22;1971;51.778;10.330;2023-08-31T02:36:13;10.50;99.90
3912;DHT22;1971;51.778;10.330;2023-08-31T02:38:43;10.50;99.90
3912;DHT22;1971;51.778;10.330;2023-08-31T02:41:17;10.50;99.90
3912;DHT22;1971;51.778;10.330;2023-08-31T02:43:49;10.50;99.90
3912;DHT22;1971;51.778;10.330;2023-08-31T02:46:20;10.50;99.90
3912;DHT22;1971;51.778;10.330;2023-08-31T02:48:50;10.40;99.90
3912;DHT22;1971;51.778;10.330;2023-08-31T02:51:24;10.40;99.90
3912;DHT22;1971;51.778;10.330;2023-08-31T02:53:54;10.40;99.90
3912;DHT22;1971;51.778;10.330;2023-08-31T02:56:27;10.50;99.90
3912;DHT22;1971;51.778;10.330;2023-08-31T02:58:57;10.50;99.90
3912;DHT22;1971;51.778;10.330;2023-08-31T03:01:28;10.60;99.90
3912;DHT22;1971;51.778;10.330;2023-08-31T03:04:01;10.90;99.90
3912;DHT22;1971;51.778;10.330;2023-08-31T03:06:32;10.50;99.90
3912;DHT22;1971;51.778;10.330;2023-08-31T03:09:11;10.50;99.90
3912;DHT22;1971;51.778;10.330;2023-08-31T03:11:48;10.50;99.90
3912;DHT22;1971;51.778;10.330;2023-08-31T03:14:20;10.50;99.90
3912;DHT22;1971;51.778;10.330;2023-08-31T03:16:51;10.50;99.90
3912;DHT22;1971;51.778;10.330;2023-08-31T03:19:21;10.70;99.90
3912;DHT22;1971;51.778;10.330;2023-08-31T03:21:54;10.40;99.90
3912;DHT22;1971;51.778;10.330;2023-08-31T03:24:28;10.40;99.90
3912;DHT22;1971;51.778;10.330;2023-08-31T03:27:02;10.40;99.90
3912;DHT22;1971;51.778;10.330;2023-08-31T03:29:35;10.50;99.90
3912;DHT22;1971;51.778;10.330;2023-08-31T03:32:08;10.50;99.90
3912;DHT22;1971;51.778;10.330;2023-08-31T03:34:38;10.40;99.90
3912;DHT22;1971;51.778;10.330;2023-08-31T03:37:10;10.50;99.90
3912;DHT22;1971;51.778;10.330;2023-08-31T03:39:41;10.40;99.90
3912;DHT22;1971;51.778;10.330;2023-08-31T03:42:14;10.50;99.90
3912;DHT22;1971;51.778;10.330;2023-08-31T03:44:47;10.50;99.90
3912;DHT22;1971;51.778;10.330;2023-08-31T03:47:20;10.50;99.90
3912;DHT22;1971;51.778;10.330;2023-08-31T03:49:53;10.50;99.90
3912;DHT22;1971;51.778;10.330;2023-08-31T03:52:26;10.40;99.90
3912;DHT22;1971;51.778;10.330;2023-08-31T03:55:04;10.40;99.90
3912;DHT22;1971;51.778;10.330;2023-08-31T03:57:46;10.20;99.90
3912;DHT22;1971;51.778;10.330;2023-08-31T04:00:22;10.30;99.90
3912;DHT22;1971;51.778;10.330;2023-08-31T04:03:00;10.50;99.90
3912;DHT22;1971;51.778;10.330;2023-08-31T04:05:32;10.60;99.90
3912;DHT22;1971;51.778;10.330;2023-08-31T04:08:03;10.60;99.90
3912;DHT22;1971;51.778;10.330;2023-08-31T04:10:34;10.50;99.90
3912;DHT22;1971;51.778;10.330;2023-08-31T04:13:07;10.50;99.90
3912;DHT22;1971;51.778;10.330;2023-08-31T04:15:39;10.40;99.90
3912;DHT22;1971;51.778;10.330;2023-08-31T04:18:09;10.50;99.90
3912;DHT22;1971;51.778;10.330;2023-08-31T04:20:47;10.50;99.90
3912;DHT22;1971;51.778;10.330;2023-08-31T04:23:18;10.50;99.90
3912;DHT22;1971;51.778;10.330;2023-08-31T04:25:49;10.20;99.90
3912;DHT22;1971;51.778;10.330;2023-08-31T04:28:23;10.40;99.90
3912;DHT22;1971;51.778;10.330;2023-08-31T04:30:53;10.30;99.90
3912;DHT22;1971;51.778;10.330;2023-08-31T04:33:24;10.30;99.90
3912;DHT22;1971;51.778;10.330;2023-08-31T04:35:56;10.30;99.90
3912;DHT22;1971;51.778;10.330;2023-08-31T04:38:26;10.30;99.90
3912;DHT22;1971;51.778;10.330;2023-08-31T04:41:00;10.20;99.90
3912;DHT22;1971;51.778;10.330;2023-08-31T04:43:33;10.30;99.90
3912;DHT22;1971;51.778;10.330;2023-08-31T04:46:04;10.30;99.90
3912;DHT22;1971;51.778;10.330;2023-08-31T04:48:34;10.30;99.90
3912;DHT22;1971;51.778;10.330;2023-08-31T04:51:04;10.30;99.90
3912;DHT22;1971;51.778;10.330;2023-08-31T04:53:35;10.40;99.90
3912;DHT22;1971;51.778;10.330;2023-08-31T04:56:05;10.50;99.90
3912;DHT22;1971;51.778;10.330;2023-08-31T04:58:38;10.50;99.90
3912;DHT22;1971;51.778;10.330;2023-08-31T05:01:09;10.40;99.90
3912;DHT22;1971;51.778;10.330;2023-08-31T05:03:40;10.40;99.90
3912;DHT22;1971;51.778;10.330;2023-08-31T05:06:10;10.50;99.90
3912;DHT22;1971;51.778;10.330;2023-08-31T05:08:40;10.30;99.90
3912;DHT22;1971;51.778;10.330;2023-08-31T05:11:11;10.40;99.90
3912;DHT22;1971;51.778;10.330;2023-08-31T05:13:47;10.30;99.90
3912;DHT22;1971;51.778;10.330;2023-08-31T05:16:17;10.30;99.90
3912;DHT22;1971;51.778;10.330;2023-08-31T05:18:48;10.60;99.90
3912;DHT22;1971;51.778;10.330;2023-08-31T05:21:19;10.40;99.90
3912;DHT22;1971;51.778;10.330;2023-08-31T05:23:50;10.30;99.90
3912;DHT22;1971;51.778;10.330;2023-08-31T05:26:23;10.30;99.90
3912;DHT22;1971;51.778;10.330;2023-08-31T05:28:55;10.40;99.90
3912;DHT22;1971;51.778;10.330;2023-08-31T05:31:26;10.20;99.90
3912;DHT22;1971;51.778;10.330;2023-08-31T05:33:57;10.10;99.90
3912;DHT22;1971;51.778;10.330;2023-08-31T05:36:27;10.10;99.90
3912;DHT22;1971;51.778;10.330;2023-08-31T05:39:02;10.10;99.90
3912;DHT22;1971;51.778;10.330;2023-08-31T05:41:32;10.20;99.90
3912;DHT22;1971;51.778;10.330;2023-08-31T05:44:06;10.10;99.90
3912;DHT22;1971;51.778;10.330;2023-08-31T05:46:37;10.20;99.90
3912;DHT22;1971;51.778;10.330;2023-08-31T05:49:08;10.20;99.90
3912;DHT22;1971;51.778;10.330;2023-08-31T05:51:38;10.10;99.90
3912;DHT22;1971;51.778;10.330;2023-08-31T05:54:08;10.30;99.90
3912;DHT22;1971;51.778;10.330;2023-08-31T05:56:40;10.20;99.90
3912;DHT22;1971;51.778;10.330;2023-08-31T05:59:13;10.20;99.90
3912;DHT22;1971;51.778;10.330;2023-08-31T06:01:44;10.20;99.90
3912;DHT22;1971;51.778;10.330;2023-08-31T06:04:14;10.20;99.90
3912;DHT22;1971;51.778;10.330;2023-08-31T06:06:44;10.20;99.90
3912;DHT22;1971;51.778;10.330;2023-08-31T06:09:14;10.10;99.90
3912;DHT22;1971;51.778;10.330;2023-08-31T06:11:44;10.10;99.90
3912;DHT22;1971;51.778;10.330;2023-08-31T06:14:17;10.20;99.90
3912;DHT22;1971;51.778;10.330;2023-08-31T06:16:48;10.30;99.90
3912;DHT22;1971;51.778;10.330;2023-08-31T06:19:19;10.30;99.90
3912;DHT22;1971;51.778;10.330;2023-08-31T06:21:50;10.30;99.90
3912;DHT22;1971;51.778;10.330;2023-08-31T06:24:21;10.20;99.90
3912;DHT22;1971;51.778;10.330;2023-08-31T06:26:51;10.30;99.90
3912;DHT22;1971;51.778;10.330;2023-08-31T06:29:25;10.40;99.90
3912;DHT22;1971;51.778;10.330;2023-08-31T06:31:55;10.20;99.90
3912;DHT22;1971;51.778;10.330;2023-08-31T06:34:25;10.40;99.90
3912;DHT22;1971;51.778;10.330;2023-08-31T06:36:56;10.40;99.90
3912;DHT22;1971;51.778;10.330;2023-08-31T06:39:27;10.30;99.90
3912;DHT22;1971;51.778;10.330;2023-08-31T06:41:57;10.30;99.90
3912;DHT22;1971;51.778;10.330;2023-08-31T06:44:32;10.30;99.90
3912;DHT22;1971;51.778;10.330;2023-08-31T06:47:03;10.10;99.90
3912;DHT22;1971;51.778;10.330;2023-08-31T06:49:33;10.30;99.90
3912;DHT22;1971;51.778;10.330;2023-08-31T06:52:04;10.10;99.90
3912;DHT22;1971;51.778;10.330;2023-08-31T06:54:55;10.20;99.90
3912;DHT22;1971;51.778;10.330;2023-08-31T06:57:27;10.20;99.90
3912;DHT22;1971;51.778;10.330;2023-08-31T07:00:00;10.40;99.90
3912;DHT22;1971;51.778;10.330;2023-08-31T07:02:30;10.40;99.90
3912;DHT22;1971;51.778;10.330;2023-08-31T07:05:03;10.40;99.90
3912;DHT22;1971;51.778;10.330;2023-08-31T07:07:33;10.30;99.90
3912;DHT22;1971;51.778;10.330;2023-08-31T07:10:04;10.30;99.90
3912;DHT22;1971;51.778;10.330;2023-08-31T07:12:35;10.20;99.90
3912;DHT22;1971;51.778;10.330;2023-08-31T07:15:09;10.40;99.90
3912;DHT22;1971;51.778;10.330;2023-08-31T07:17:39;10.20;99.90
3912;DHT22;1971;51.778;10.330;2023-08-31T07:20:11;10.50;99.90
3912;DHT22;1971;51.778;10.330;2023-08-31T07:22:41;10.50;99.90
3912;DHT22;1971;51.778;10.330;2023-08-31T07:25:12;10.70;99.90
3912;DHT22;1971;51.778;10.330;2023-08-31T07:27:42;10.80;99.90
3912;DHT22;1971;51.778;10.330;2023-08-31T07:30:16;10.50;99.90
3912;DHT22;1971;51.778;10.330;2023-08-31T07:32:46;10.60;99.90
3912;DHT22;1971;51.778;10.330;2023-08-31T07:35:16;10.60;99.90
3912;DHT22;1971;51.778;10.330;2023-08-31T07:37:47;10.60;99.90
3912;DHT22;1971;51.778;10.330;2023-08-31T07:40:17;10.70;99.90
3912;DHT22;1971;51.778;10.330;2023-08-31T07:42:48;11.10;99.90
3912;DHT22;1971;51.778;10.330;2023-08-31T07:45:21;10.90;99.90
3912;DHT22;1971;51.778;10.330;2023-08-31T07:47:51;11.30;99.90
3912;DHT22;1971;51.778;10.330;2023-08-31T07:50:21;11.00;99.90
3912;DHT22;1971;51.778;10.330;2023-08-31T07:52:52;10.90;99.90
3912;DHT22;1971;51.778;10.330;2023-08-31T07:55:22;11.30;99.90
3912;DHT22;1971;51.778;10.330;2023-08-31T07:57:52;11.30;99.90
3912;DHT22;1971;51.778;10.330;2023-08-31T08:00:25;11.20;99.90
3912;DHT22;1971;51.778;10.330;2023-08-31T08:02:55;11.40;99.90
3912;DHT22;1971;51.778;10.330;2023-08-31T08:05:26;11.60;99.90
3912;DHT22;1971;51.778;10.330;2023-08-31T08:07:57;11.70;99.90
3912;DHT22;1971;51.778;10.330;2023-08-31T08:10:27;11.80;99.90
3912;DHT22;1971;51.778;10.330;2023-08-31T08:12:57;11.80;99.90
3912;DHT22;1971;51.778;10.330;2023-08-31T08:15:31;12.00;99.90
3912;DHT22;1971;51.778;10.330;2023-08-31T08:18:01;12.10;99.90
3912;DHT22;1971;51.778;10.330;2023-08-31T08:20:31;12.00;99.90
3912;DHT22;1971;51.778;10.330;2023-08-31T08:23:02;11.90;99.90
3912;DHT22;1971;51.778;10.330;2023-08-31T08:25:32;12.10;99.90
3912;DHT22;1971;51.778;10.330;2023-08-31T08:28:03;12.40;99.90
3912;DHT22;1971;51.778;10.330;2023-08-31T08:30:36;12.40;99.90
3912;DHT22;1971;51.778;10.330;2023-08-31T08:33:08;12.60;99.90
3912;DHT22;1971;51.778;10.330;2023-08-31T08:35:39;12.50;99.90
3912;DHT22;1971;51.778;10.330;2023-08-31T08:38:10;12.40;99.90
3912;DHT22;1971;51.778;10.330;2023-08-31T08:40:41;12.10;99.90
3912;DHT22;1971;51.778;10.330;2023-08-31T08:43:11;12.10;99.90
3912;DHT22;1971;51.778;10.330;2023-08-31T08:45:46;12.10;99.90
3912;DHT22;1971;51.778;10.330;2023-08-31T08:48:18;12.30;99.90
3912;DHT22;1971;51.778;10.330;2023-08-31T08:50:48;12.70;99.90
3912;DHT22;1971;51.778;10.330;2023-08-31T08:53:19;12.70;99.90
3912;DHT22;1971;51.778;10.330;2023-08-31T08:55:49;12.80;99.90
3912;DHT22;1971;51.778;10.330;2023-08-31T08:58:19;12.80;99.90
3912;DHT22;1971;51.778;10.330;2023-08-31T09:00:56;12.60;99.90
3912;DHT22;1971;51.778;10.330;2023-08-31T09:03:27;12.60;99.90
3912;DHT22;1971;51.778;10.330;2023-08-31T09:05:59;12.50;99.90
3912;DHT22;1971;51.778;10.330;2023-08-31T09:08:33;12.80;99.90
3912;DHT22;1971;51.778;10.330;2023-08-31T09:11:05;13.10;99.90
3912;DHT22;1971;51.778;10.330;2023-08-31T09:13:35;13.40;99.90
3912;DHT22;1971;51.778;10.330;2023-08-31T09:16:20;13.40;99.90
3912;DHT22;1971;51.778;10.330;2023-08-31T09:18:53;13.30;99.90
3912;DHT22;1971;51.778;10.330;2023-08-31T09:21:34;13.60;99.90
3912;DHT22;1971;51.778;10.330;2023-08-31T09:24:05;14.10;99.90
3912;DHT22;1971;51.778;10.330;2023-08-31T09:26:40;14.40;99.90
3912;DHT22;1971;51.778;10.330;2023-08-31T09:29:13;14.60;1.00
3912;DHT22;1971;51.778;10.330;2023-08-31T09:31:49;14.80;1.00
3912;DHT22;1971;51.778;10.330;2023-08-31T09:34:20;14.40;1.00
3912;DHT22;1971;51.778;10.330;2023-08-31T09:36:50;14.20;1.00
3912;DHT22;1971;51.778;10.330;2023-08-31T09:39:20;14.60;48.80
3912;DHT22;1971;51.778;10.330;2023-08-31T09:41:53;14.80;1.00
3912;DHT22;1971;51.778;10.330;2023-08-31T09:44:24;15.10;1.00
3912;DHT22;1971;51.778;10.330;2023-08-31T09:46:56;15.40;1.00
3912;DHT22;1971;51.778;10.330;2023-08-31T09:49:28;15.40;1.00
3912;DHT22;1971;51.778;10.330;2023-08-31T09:52:02;15.20;99.90
3912;DHT22;1971;51.778;10.330;2023-08-31T09:54:35;15.30;99.90
3912;DHT22;1971;51.778;10.330;2023-08-31T09:57:05;15.30;99.90
3912;DHT22;1971;51.778;10.330;2023-08-31T09:59:35;15.30;99.90
3912;DHT22;1971;51.778;10.330;2023-08-31T10:02:13;15.50;99.90
3912;DHT22;1971;51.778;10.330;2023-08-31T10:04:46;15.10;94.40
3912;DHT22;1971;51.778;10.330;2023-08-31T10:07:20;14.70;99.90
3912;DHT22;1971;51.778;10.330;2023-08-31T10:09:51;14.50;99.90
3912;DHT22;1971;51.778;10.330;2023-08-31T10:12:22;14.50;99.90
3912;DHT22;1971;51.778;10.330;2023-08-31T10:14:54;13.90;99.90
3912;DHT22;1971;51.778;10.330;2023-08-31T10:17:27;13.70;99.90
3912;DHT22;1971;51.778;10.330;2023-08-31T10:19:58;13.40;99.90
3912;DHT22;1971;51.778;10.330;2023-08-31T10:22:31;13.50;99.90
3912;DHT22;1971;51.778;10.330;2023-08-31T10:25:04;13.40;1.00
3912;DHT22;1971;51.778;10.330;2023-08-31T10:27:38;13.20;1.00
3912;DHT22;1971;51.778;10.330;2023-08-31T10:30:24;13.10;1.00
3912;DHT22;1971;51.778;10.330;2023-08-31T10:33:20;13.10;1.00
3912;DHT22;1971;51.778;10.330;2023-08-31T10:35:52;13.20;1.00
3912;DHT22;1971;51.778;10.330;2023-08-31T10:38:25;13.10;1.00
3912;DHT22;1971;51.778;10.330;2023-08-31T10:41:16;12.90;1.00
3912;DHT22;1971;51.778;10.330;2023-08-31T10:43:50;12.70;1.00
3912;DHT22;1971;51.778;10.330;2023-08-31T10:46:29;12.70;1.00
3912;DHT22;1971;51.778;10.330;2023-08-31T10:49:13;12.50;26.50
3912;DHT22;1971;51.778;10.330;2023-08-31T10:51:46;12.20;99.90
3912;DHT22;1971;51.778;10.330;2023-08-31T10:54:21;12.30;99.90
3912;DHT22;1971;51.778;10.330;2023-08-31T10:59:45;12.30;99.90
3912;DHT22;1971;51.778;10.330;2023-08-31T11:02:35;12.50;99.90
3912;DHT22;1971;51.778;10.330;2023-08-31T11:05:12;12.40;99.90
3912;DHT22;1971;51.778;10.330;2023-08-31T11:07:43;12.60;99.90
3912;DHT22;1971;51.778;10.330;2023-08-31T11:10:16;12.70;99.90
3912;DHT22;1971;51.778;10.330;2023-08-31T11:12:48;12.60;99.90
3912;DHT22;1971;51.778;10.330;2023-08-31T11:15:20;12.40;99.90
3912;DHT22;1971;51.778;10.330;2023-08-31T11:17:52;12.20;99.90
3912;DHT22;1971;51.778;10.330;2023-08-31T11:20:26;12.10;99.90
3912;DHT22;1971;51.778;10.330;2023-08-31T11:22:58;11.90;99.90
3912;DHT22;1971;51.778;10.330;2023-08-31T11:25:31;11.60;99.90
3912;DHT22;1971;51.778;10.330;2023-08-31T11:28:02;11.50;99.90
3912;DHT22;1971;51.778;10.330;2023-08-31T11:30:33;11.50;99.90
3912;DHT22;1971;51.778;10.330;2023-08-31T11:33:05;11.30;99.90
3912;DHT22;1971;51.778;10.330;2023-08-31T11:35:41;11.10;99.90
3912;DHT22;1971;51.778;10.330;2023-08-31T11:38:13;11.00;99.90
3912;DHT22;1971;51.778;10.330;2023-08-31T11:40:43;10.90;99.90
3912;DHT22;1971;51.778;10.330;2023-08-31T11:43:15;11.00;99.90
3912;DHT22;1971;51.778;10.330;2023-08-31T11:45:47;11.10;99.90
3912;DHT22;1971;51.778;10.330;2023-08-31T11:48:17;11.20;99.90
3912;DHT22;1971;51.778;10.330;2023-08-31T11:50:50;11.50;99.90
3912;DHT22;1971;51.778;10.330;2023-08-31T11:53:20;11.80;99.90
3912;DHT22;1971;51.778;10.330;2023-08-31T11:55:51;12.20;99.90
3912;DHT22;1971;51.778;10.330;2023-08-31T11:58:22;12.50;99.90
3912;DHT22;1971;51.778;10.330;2023-08-31T12:00:57;12.90;99.90
3912;DHT22;1971;51.778;10.330;2023-08-31T12:03:27;13.10;99.90
3912;DHT22;1971;51.778;10.330;2023-08-31T12:06:18;13.20;99.90
3912;DHT22;1971;51.778;10.330;2023-08-31T12:08:48;13.30;99.90
3912;DHT22;1971;51.778;10.330;2023-08-31T12:11:19;13.50;99.90
3912;DHT22;1971;51.778;10.330;2023-08-31T12:13:50;13.40;99.90
3912;DHT22;1971;51.778;10.330;2023-08-31T12:16:20;13.50;99.90
3912;DHT22;1971;51.778;10.330;2023-08-31T12:18:50;13.50;99.90
3912;DHT22;1971;51.778;10.330;2023-08-31T12:21:24;13.30;99.90
3912;DHT22;1971;51.778;10.330;2023-08-31T12:23:54;12.90;99.90
3912;DHT22;1971;51.778;10.330;2023-08-31T12:26:24;12.80;99.90
3912;DHT22;1971;51.778;10.330;2023-08-31T12:28:55;12.60;99.90
3912;DHT22;1971;51.778;10.330;2023-08-31T12:31:25;12.50;99.90
3912;DHT22;1971;51.778;10.330;2023-08-31T12:33:55;12.40;99.90
3912;DHT22;1971;51.778;10.330;2023-08-31T12:36:28;12.30;99.90
3912;DHT22;1971;51.778;10.330;2023-08-31T12:38:58;12.20;99.90
3912;DHT22;1971;51.778;10.330;2023-08-31T12:41:33;12.00;99.90
3912;DHT22;1971;51.778;10.330;2023-08-31T12:44:04;11.90;99.90
3912;DHT22;1971;51.778;10.330;2023-08-31T12:46:35;11.90;99.90
3912;DHT22;1971;51.778;10.330;2023-08-31T12:49:06;12.10;99.90
3912;DHT22;1971;51.778;10.330;2023-08-31T12:51:39;11.90;99.90
3912;DHT22;1971;51.778;10.330;2023-08-31T12:54:09;11.90;99.90
3912;DHT22;1971;51.778;10.330;2023-08-31T12:56:41;11.80;99.90
3912;DHT22;1971;51.778;10.330;2023-08-31T12:59:11;11.80;99.90
3912;DHT22;1971;51.778;10.330;2023-08-31T13:01:41;11.60;99.90
3912;DHT22;1971;51.778;10.330;2023-08-31T13:04:12;11.50;99.90
3912;DHT22;1971;51.778;10.330;2023-08-31T13:06:44;11.30;99.90
3912;DHT22;1971;51.778;10.330;2023-08-31T13:09:15;11.40;99.90
3912;DHT22;1971;51.778;10.330;2023-08-31T13:11:45;11.40;99.90
3912;DHT22;1971;51.778;10.330;2023-08-31T13:14:17;11.50;99.90
3912;DHT22;1971;51.778;10.330;2023-08-31T13:16:47;11.40;99.90
3912;DHT22;1971;51.778;10.330;2023-08-31T13:19:17;11.50;99.90
3912;DHT22;1971;51.778;10.330;2023-08-31T13:21:50;11.50;99.90
3912;DHT22;1971;51.778;10.330;2023-08-31T13:24:20;11.60;99.90
3912;DHT22;1971;51.778;10.330;2023-08-31T13:26:50;11.30;99.90
3912;DHT22;1971;51.778;10.330;2023-08-31T13:29:20;11.30;99.90
3912;DHT22;1971;51.778;10.330;2023-08-31T13:31:51;11.20;99.90
3912;DHT22;1971;51.778;10.330;2023-08-31T13:34:21;11.00;99.90
3912;DHT22;1971;51.778;10.330;2023-08-31T13:36:54;10.80;99.90
3912;DHT22;1971;51.778;10.330;2023-08-31T13:39:25;10.70;99.90
3912;DHT22;1971;51.778;10.330;2023-08-31T13:41:55;10.80;99.90
3912;DHT22;1971;51.778;10.330;2023-08-31T13:44:25;10.90;99.90
3912;DHT22;1971;51.778;10.330;2023-08-31T13:46:55;11.00;99.90
3912;DHT22;1971;51.778;10.330;2023-08-31T13:49:26;11.40;99.90
3912;DHT22;1971;51.778;10.330;2023-08-31T13:51:59;11.40;99.90
3912;DHT22;1971;51.778;10.330;2023-08-31T13:54:31;11.50;99.90
3912;DHT22;1971;51.778;10.330;2023-08-31T13:57:01;11.60;99.90
3912;DHT22;1971;51.778;10.330;2023-08-31T13:59:31;11.80;99.90
3912;DHT22;1971;51.778;10.330;2023-08-31T14:02:02;12.30;99.90
3912;DHT22;1971;51.778;10.330;2023-08-31T14:04:32;13.10;99.90
3912;DHT22;1971;51.778;10.330;2023-08-31T14:07:05;13.70;99.90
3912;DHT22;1971;51.778;10.330;2023-08-31T14:09:35;14.20;99.90
3912;DHT22;1971;51.778;10.330;2023-08-31T14:12:06;14.70;99.90
3912;DHT22;1971;51.778;10.330;2023-08-31T14:14:36;14.30;99.90
3912;DHT22;1971;51.778;10.330;2023-08-31T14:17:08;14.60;99.90
3912;DHT22;1971;51.778;10.330;2023-08-31T14:19:38;14.30;99.90
3912;DHT22;1971;51.778;10.330;2023-08-31T14:22:11;14.50;99.90
3912;DHT22;1971;51.778;10.330;2023-08-31T14:24:41;14.70;99.90
3912;DHT22;1971;51.778;10.330;2023-08-31T14:27:13;14.70;99.90
3912;DHT22;1971;51.778;10.330;2023-08-31T14:29:43;14.80;99.90
3912;DHT22;1971;51.778;10.330;2023-08-31T14:32:14;14.70;94.40
3912;DHT22;1971;51.778;10.330;2023-08-31T14:34:44;14.40;1.00
3912;DHT22;1971;51.778;10.330;2023-08-31T14:37:18;13.80;31.70
3912;DHT22;1971;51.778;10.330;2023-08-31T14:39:48;13.60;99.40
3912;DHT22;1971;51.778;10.330;2023-08-31T14:42:18;13.60;99.90
3912;DHT22;1971;51.778;10.330;2023-08-31T14:44:48;13.60;99.90
3912;DHT22;1971;51.778;10.330;2023-08-31T14:47:19;13.40;99.90
3912;DHT22;1971;51.778;10.330;2023-08-31T14:49:49;13.50;99.90
3912;DHT22;1971;51.778;10.330;2023-08-31T14:52:22;13.50;99.90
3912;DHT22;1971;51.778;10.330;2023-08-31T14:54:52;13.40;99.90
3912;DHT22;1971;51.778;10.330;2023-08-31T14:57:23;13.40;99.90
3912;DHT22;1971;51.778;10.330;2023-08-31T14:59:53;13.40;99.90
3912;DHT22;1971;51.778;10.330;2023-08-31T15:02:29;13.30;99.90
3912;DHT22;1971;51.778;10.330;2023-08-31T15:05:00;13.10;99.90
3912;DHT22;1971;51.778;10.330;2023-08-31T15:07:33;12.50;99.90
3912;DHT22;1971;51.778;10.330;2023-08-31T15:10:04;12.40;99.90
3912;DHT22;1971;51.778;10.330;2023-08-31T15:12:34;12.50;99.90
3912;DHT22;1971;51.778;10.330;2023-08-31T15:15:05;12.50;99.90
3912;DHT22;1971;51.778;10.330;2023-08-31T15:17:36;12.50;99.90
3912;DHT22;1971;51.778;10.330;2023-08-31T15:20:08;12.70;99.90
3912;DHT22;1971;51.778;10.330;2023-08-31T15:22:42;12.90;99.90
3912;DHT22;1971;51.778;10.330;2023-08-31T15:25:12;12.90;99.90
3912;DHT22;1971;51.778;10.330;2023-08-31T15:27:42;13.10;99.90
3912;DHT22;1971;51.778;10.330;2023-08-31T15:30:13;13.10;99.90
3912;DHT22;1971;51.778;10.330;2023-08-31T15:32:43;13.30;99.90
3912;DHT22;1971;51.778;10.330;2023-08-31T15:35:13;13.30;99.90
3912;DHT22;1971;51.778;10.330;2023-08-31T15:37:46;13.30;99.90
3912;DHT22;1971;51.778;10.330;2023-08-31T15:40:19;13.30;99.90
3912;DHT22;1971;51.778;10.330;2023-08-31T15:42:49;13.40;99.90
3912;DHT22;1971;51.778;10.330;2023-08-31T15:45:20;13.30;99.90
3912;DHT22;1971;51.778;10.330;2023-08-31T15:47:50;13.20;53.00
3912;DHT22;1971;51.778;10.330;2023-08-31T15:50:21;13.00;1.00
3912;DHT22;1971;51.778;10.330;2023-08-31T15:52:53;12.90;1.00
3912;DHT22;1971;51.778;10.330;2023-08-31T15:55:24;12.80;1.00
3912;DHT22;1971;51.778;10.330;2023-08-31T15:57:54;12.70;1.00
3912;DHT22;1971;51.778;10.330;2023-08-31T16:00:25;12.60;1.00
3912;DHT22;1971;51.778;10.330;2023-08-31T16:02:55;12.60;1.00
3912;DHT22;1971;51.778;10.330;2023-08-31T16:05:25;12.60;72.90
3912;DHT22;1971;51.778;10.330;2023-08-31T16:07:59;12.50;54.10
3912;DHT22;1971;51.778;10.330;2023-08-31T16:10:29;12.40;99.90
3912;DHT22;1971;51.778;10.330;2023-08-31T16:13:00;12.40;99.90
3912;DHT22;1971;51.778;10.330;2023-08-31T16:15:30;11.50;99.90
3912;DHT22;1971;51.778;10.330;2023-08-31T16:18:00;11.20;99.90
3912;DHT22;1971;51.778;10.330;2023-08-31T16:20:30;11.00;99.90